Terminal Aerodrome Forecast
Issued by NWS

Home | Current Version | Previous Version | Text Only | Print | Product List | Glossary On
Versions: 1 2 3 4 5 6 7 8 9 10 11 12 13 14 15 16 17 18 19 20 21 22 23 24 25 26 27 28 29
000
FTUS43 KDLH 232300
TAFHYR
TAF
KHYR 232334Z 2400/2424 17007KT P6SM OVC013
      TEMPO 2400/2402 SCT015
     FM240200 18005KT P6SM SCT015
     FM240500 18003KT 3SM BR SKC
      TEMPO 2408/2412 1/2SM FG
     FM241400 18006KT P6SM SKC=

USA.gov is the U.S. government's official web portal to all federal, state and local government web resources and services.